createdAt,value
2017-10-27T00:01:17.063Z,12.87
2017-10-27T00:03:44.556Z,16.13
2017-10-27T00:06:12.117Z,17.00
2017-10-27T00:08:39.656Z,14.97
2017-10-27T00:11:07.233Z,13.87
2017-10-27T00:13:34.740Z,13.63
2017-10-27T00:16:02.272Z,12.50
2017-10-27T00:18:29.763Z,13.30
2017-10-27T00:20:57.403Z,14.37
2017-10-27T00:23:25.141Z,13.07
2017-10-27T00:25:52.637Z,14.00
2017-10-27T00:28:20.137Z,12.80
2017-10-27T00:30:47.807Z,11.90
2017-10-27T00:33:15.304Z,12.30
2017-10-27T00:35:42.824Z,13.23
2017-10-27T00:38:10.355Z,11.30
2017-10-27T00:40:37.861Z,10.10
2017-10-27T00:43:05.366Z,11.43
2017-10-27T00:45:32.882Z,11.87
2017-10-27T00:48:00.380Z,11.70
2017-10-27T00:50:27.917Z,10.50
2017-10-27T00:52:55.452Z,50.57
2017-10-27T00:55:22.940Z,11.03
2017-10-27T00:57:50.428Z,11.27
2017-10-27T01:00:17.979Z,10.10
2017-10-27T01:02:45.480Z,10.30
2017-10-27T01:05:12.965Z,8.80
2017-10-27T01:07:40.501Z,8.70
2017-10-27T01:10:07.992Z,8.40
2017-10-27T01:12:35.476Z,8.00
2017-10-27T01:15:03.059Z,8.57
2017-10-27T01:17:30.620Z,8.23
2017-10-27T01:19:58.169Z,7.60
2017-10-27T01:22:25.705Z,7.83
2017-10-27T01:24:53.196Z,7.10
2017-10-27T01:27:20.699Z,7.30
2017-10-27T01:29:48.327Z,7.37
2017-10-27T01:32:15.864Z,6.13
2017-10-27T01:34:43.353Z,6.93
2017-10-27T01:37:10.908Z,8.40
2017-10-27T01:39:38.392Z,6.50
2017-10-27T01:42:05.874Z,6.90
2017-10-27T01:44:33.455Z,6.60
2017-10-27T01:47:01.019Z,6.20
2017-10-27T01:49:28.514Z,7.43
2017-10-27T01:51:56.044Z,6.30
2017-10-27T01:54:23.532Z,6.03
2017-10-27T01:56:51.016Z,6.33
2017-10-27T01:59:18.526Z,5.50
2017-10-27T02:01:46.044Z,5.70
2017-10-27T02:04:13.531Z,7.00
2017-10-27T02:06:41.019Z,5.23
2017-10-27T02:09:08.555Z,5.00
2017-10-27T02:11:36.041Z,5.20
2017-10-27T02:14:03.527Z,5.63
2017-10-27T02:16:31.045Z,5.70
2017-10-27T02:18:58.532Z,5.80
2017-10-27T02:21:26.137Z,4.80
2017-10-27T02:23:53.631Z,4.83
2017-10-27T02:26:21.163Z,4.47
2017-10-27T02:28:48.676Z,4.30
2017-10-27T02:31:16.164Z,4.50
2017-10-27T02:33:43.652Z,5.57
2017-10-27T02:36:11.175Z,4.67
2017-10-27T02:38:38.662Z,5.00
2017-10-27T02:41:06.160Z,3.47
2017-10-27T02:43:33.673Z,3.80
2017-10-27T02:46:01.212Z,3.77
2017-10-27T02:48:28.729Z,4.57
2017-10-27T02:50:56.209Z,3.87
2017-10-27T02:53:23.697Z,4.10
2017-10-27T02:55:51.227Z,4.00
2017-10-27T02:58:18.712Z,4.37
2017-10-27T03:00:46.197Z,3.30
2017-10-27T03:03:13.917Z,4.03
2017-10-27T03:05:41.414Z,4.50
2017-10-27T03:08:08.895Z,4.30
2017-10-27T03:10:36.404Z,5.10
2017-10-27T03:13:03.932Z,4.40
2017-10-27T03:15:31.434Z,4.20
2017-10-27T03:17:58.930Z,4.30
2017-10-27T03:20:26.450Z,5.20
2017-10-27T03:22:53.968Z,4.60
2017-10-27T03:25:21.453Z,4.67
2017-10-27T03:27:48.967Z,4.20
2017-10-27T03:30:16.512Z,5.83
2017-10-27T03:32:44.005Z,3.77
2017-10-27T03:35:11.575Z,3.80
2017-10-27T03:37:39.160Z,3.17
2017-10-27T03:40:06.678Z,4.23
2017-10-27T03:42:34.163Z,3.40
2017-10-27T03:45:01.723Z,3.57
2017-10-27T03:47:29.278Z,3.63
2017-10-27T03:49:56.773Z,2.87
2017-10-27T03:52:24.277Z,3.77
2017-10-27T03:54:51.826Z,3.60
2017-10-27T03:57:19.319Z,4.00
2017-10-27T03:59:46.805Z,4.63
2017-10-27T04:02:14.344Z,4.50
2017-10-27T04:04:41.888Z,3.40
2017-10-27T04:07:09.379Z,3.07
2017-10-27T04:09:37.000Z,3.20
2017-10-27T04:12:04.491Z,4.53
2017-10-27T04:14:31.979Z,3.10
2017-10-27T04:16:59.489Z,2.80
2017-10-27T04:19:27.031Z,2.70
2017-10-27T04:21:54.540Z,3.27
2017-10-27T04:24:22.027Z,3.60
2017-10-27T04:26:49.570Z,2.97
2017-10-27T04:29:17.056Z,3.30
2017-10-27T04:31:44.541Z,2.77
2017-10-27T04:34:12.053Z,3.73
2017-10-27T04:36:39.582Z,3.90
2017-10-27T04:39:07.091Z,4.17
2017-10-27T04:41:34.584Z,3.53
2017-10-27T04:44:02.129Z,3.13
2017-10-27T04:46:29.607Z,3.30
2017-10-27T04:48:57.101Z,3.30
2017-10-27T04:51:24.617Z,3.73
2017-10-27T04:53:52.144Z,2.97
2017-10-27T04:56:19.670Z,3.27
2017-10-27T04:58:47.157Z,3.83
2017-10-27T05:01:14.645Z,4.93
2017-10-27T05:03:42.184Z,3.77
2017-10-27T05:06:09.674Z,3.57
2017-10-27T05:08:37.160Z,5.20
2017-10-27T05:11:04.679Z,3.00
2017-10-27T05:13:32.175Z,3.80
2017-10-27T05:15:59.657Z,2.53
2017-10-27T05:18:32.807Z,13.67
2017-10-27T05:21:05.943Z,3.53
2017-10-27T05:23:39.351Z,4.47
2017-10-27T05:26:06.844Z,12.13
2017-10-27T05:28:34.322Z,4.50
2017-10-27T05:31:01.864Z,5.70
2017-10-27T05:33:29.355Z,5.10
2017-10-27T05:35:56.843Z,4.20
2017-10-27T05:38:24.381Z,4.03
2017-10-27T05:40:51.944Z,4.20
2017-10-27T05:43:19.484Z,4.40
2017-10-27T05:45:47.071Z,4.93
2017-10-27T05:48:14.561Z,4.90
2017-10-27T05:50:42.112Z,5.67
2017-10-27T05:53:09.600Z,5.23
2017-10-27T05:55:37.102Z,5.30
2017-10-27T05:58:04.627Z,17.13
2017-10-27T06:00:32.112Z,4.90
2017-10-27T06:02:59.700Z,4.20
2017-10-27T06:05:27.342Z,7.97
2017-10-27T06:07:54.831Z,6.50
2017-10-27T06:10:22.327Z,4.07
2017-10-27T06:12:50.025Z,4.60
2017-10-27T06:15:17.517Z,4.53
2017-10-27T06:17:45.017Z,3.50
2017-10-27T06:20:12.900Z,3.43
2017-10-27T06:22:40.419Z,5.20
2017-10-27T06:25:07.904Z,3.73
2017-10-27T06:27:35.394Z,3.87
2017-10-27T06:30:02.923Z,3.90
2017-10-27T06:32:30.492Z,5.10
2017-10-27T06:34:58.057Z,3.90
2017-10-27T06:37:25.580Z,4.07
2017-10-27T06:39:53.077Z,3.97
2017-10-27T06:42:20.568Z,4.23
2017-10-27T06:44:48.095Z,4.47
2017-10-27T06:47:15.592Z,4.10
2017-10-27T06:49:43.076Z,4.63
2017-10-27T06:52:10.659Z,5.67
2017-10-27T06:54:38.227Z,4.43
2017-10-27T06:57:05.719Z,4.00
2017-10-27T06:59:33.261Z,3.90
2017-10-27T07:02:00.747Z,4.80
2017-10-27T07:04:28.235Z,4.00
2017-10-27T07:06:55.758Z,5.27
2017-10-27T07:09:23.251Z,4.77
2017-10-27T07:11:50.747Z,5.20
2017-10-27T07:14:18.282Z,3.83
2017-10-27T07:16:45.783Z,3.17
2017-10-27T07:19:13.271Z,3.60
2017-10-27T07:21:40.780Z,3.33
2017-10-27T07:24:08.273Z,2.90
2017-10-27T07:26:35.816Z,3.30
2017-10-27T07:29:03.308Z,4.17
2017-10-27T07:31:30.810Z,2.70
2017-10-27T07:33:58.452Z,3.50
2017-10-27T07:36:25.939Z,3.33
2017-10-27T07:38:53.428Z,4.00
2017-10-27T07:41:20.956Z,4.20
2017-10-27T07:43:48.461Z,3.30
2017-10-27T07:46:15.947Z,2.70
2017-10-27T07:48:43.476Z,5.07
2017-10-27T07:51:10.975Z,3.67
2017-10-27T07:53:38.458Z,3.03
2017-10-27T07:56:05.982Z,4.00
2017-10-27T07:58:33.464Z,3.73
2017-10-27T08:01:00.949Z,2.40
2017-10-27T08:03:28.493Z,2.80
2017-10-27T08:05:56.006Z,3.23
2017-10-27T08:08:23.498Z,3.07
2017-10-27T08:10:51.042Z,3.70
2017-10-27T08:13:18.527Z,3.20
2017-10-27T08:15:46.028Z,3.03
2017-10-27T08:18:13.596Z,3.00
2017-10-27T08:20:41.088Z,2.90
2017-10-27T08:23:08.635Z,3.33
2017-10-27T08:25:36.120Z,3.00
2017-10-27T08:28:03.606Z,3.53
2017-10-27T08:30:31.298Z,2.27
2017-10-27T08:32:58.788Z,3.37
2017-10-27T08:35:26.292Z,3.67
2017-10-27T08:37:53.872Z,3.80
2017-10-27T08:40:21.419Z,2.20
2017-10-27T08:42:48.917Z,3.17
2017-10-27T08:45:16.431Z,3.07
2017-10-27T08:47:44.000Z,3.87
2017-10-27T08:50:11.493Z,2.60
2017-10-27T08:52:39.039Z,2.73
2017-10-27T08:55:06.991Z,2.33
2017-10-27T08:57:34.548Z,2.60
2017-10-27T09:00:02.028Z,2.97
2017-10-27T09:02:29.671Z,2.37
2017-10-27T09:04:57.155Z,2.43
2017-10-27T09:07:24.640Z,3.27
2017-10-27T09:09:52.171Z,5.20
2017-10-27T09:12:19.658Z,3.00
2017-10-27T09:14:47.144Z,1.83
2017-10-27T09:17:14.713Z,2.63
2017-10-27T09:19:42.271Z,2.57
2017-10-27T09:22:09.761Z,2.70
2017-10-27T09:24:37.495Z,2.40
2017-10-27T09:27:05.001Z,3.33
2017-10-27T09:29:33.467Z,2.60
2017-10-27T09:32:01.109Z,4.33
2017-10-27T09:34:28.609Z,3.00
2017-10-27T09:36:56.101Z,4.60
2017-10-27T09:39:23.634Z,3.03
2017-10-27T09:41:51.121Z,2.70
2017-10-27T09:44:18.608Z,3.87
2017-10-27T09:46:46.141Z,3.47
2017-10-27T09:49:13.632Z,2.67
2017-10-27T09:51:41.124Z,3.10
2017-10-27T09:54:08.636Z,3.90
2017-10-27T09:56:36.182Z,2.70
2017-10-27T09:59:03.731Z,2.70
2017-10-27T10:01:31.221Z,4.13
2017-10-27T10:03:58.751Z,2.63
2017-10-27T10:06:26.249Z,3.13
2017-10-27T10:08:53.743Z,3.23
2017-10-27T10:11:21.436Z,2.93
2017-10-27T10:13:48.931Z,2.67
2017-10-27T10:16:16.418Z,3.20
2017-10-27T10:18:44.003Z,3.30
2017-10-27T10:21:11.492Z,2.90
2017-10-27T10:23:38.984Z,2.87
2017-10-27T10:26:06.519Z,3.10
2017-10-27T10:28:34.057Z,2.90
2017-10-27T10:31:01.547Z,2.73
2017-10-27T10:33:29.190Z,2.70
2017-10-27T10:35:56.716Z,3.70
2017-10-27T10:38:24.203Z,2.20
2017-10-27T10:40:51.722Z,2.80
2017-10-27T10:43:19.215Z,5.23
2017-10-27T10:45:46.760Z,2.80
2017-10-27T10:48:14.307Z,2.90
2017-10-27T10:50:41.865Z,2.77
2017-10-27T10:53:09.531Z,3.67
2017-10-27T10:55:37.016Z,2.27
2017-10-27T10:58:04.503Z,4.00
2017-10-27T11:00:32.149Z,2.10
2017-10-27T11:02:59.664Z,2.00
2017-10-27T11:05:27.149Z,2.37
2017-10-27T11:07:54.676Z,1.87
2017-10-27T11:10:22.173Z,2.60
2017-10-27T11:12:49.667Z,2.20
2017-10-27T11:15:17.218Z,2.37
2017-10-27T11:17:44.769Z,2.87
2017-10-27T11:20:12.279Z,2.50
2017-10-27T11:22:39.810Z,2.43
2017-10-27T11:25:07.302Z,2.07
2017-10-27T11:27:34.788Z,3.83
2017-10-27T11:30:02.312Z,2.73
2017-10-27T11:32:29.806Z,3.50
2017-10-27T11:34:57.292Z,3.10
2017-10-27T11:37:24.820Z,3.73
2017-10-27T11:39:52.311Z,2.23
2017-10-27T11:42:19.804Z,2.60
2017-10-27T11:44:47.340Z,3.27
2017-10-27T11:47:14.838Z,2.00
2017-10-27T11:49:42.367Z,2.50
2017-10-27T11:52:09.912Z,3.37
2017-10-27T11:54:37.400Z,3.17
2017-10-27T11:57:04.883Z,2.50
2017-10-27T11:59:32.503Z,2.70
2017-10-27T12:02:00.082Z,2.10
2017-10-27T12:04:27.596Z,2.73
2017-10-27T12:06:55.087Z,2.73
2017-10-27T12:09:22.640Z,3.47
2017-10-27T12:11:50.176Z,2.80
2017-10-27T12:14:17.662Z,2.23
2017-10-27T12:16:45.154Z,2.60
2017-10-27T12:19:12.690Z,2.87
2017-10-27T12:21:40.242Z,3.10
2017-10-27T12:24:07.792Z,2.97
2017-10-27T12:26:35.307Z,2.77
2017-10-27T12:29:02.795Z,2.50
2017-10-27T12:31:30.367Z,3.23
2017-10-27T12:33:57.852Z,1.93
2017-10-27T12:36:25.356Z,2.23
2017-10-27T12:38:52.883Z,2.67
2017-10-27T12:41:20.417Z,11.30
2017-10-27T12:43:47.907Z,3.00
2017-10-27T12:46:15.423Z,3.17
2017-10-27T12:48:42.922Z,3.20
2017-10-27T12:51:10.410Z,7.57
2017-10-27T12:53:37.931Z,4.10
2017-10-27T12:56:05.416Z,3.20
2017-10-27T12:58:32.958Z,4.27
2017-10-27T13:01:00.443Z,3.73
2017-10-27T13:03:28.031Z,3.80
2017-10-27T13:05:55.689Z,5.30
2017-10-27T13:08:23.176Z,4.40
2017-10-27T13:10:50.667Z,3.20
2017-10-27T13:13:18.204Z,8.70
2017-10-27T13:15:45.719Z,3.33
2017-10-27T13:18:13.202Z,4.03
2017-10-27T13:20:40.738Z,3.70
2017-10-27T13:23:08.313Z,4.13
2017-10-27T13:25:35.799Z,3.80
2017-10-27T13:28:03.421Z,2.90
2017-10-27T13:30:30.920Z,4.30
2017-10-27T13:32:58.412Z,3.20
2017-10-27T13:35:25.989Z,2.37
2017-10-27T13:37:53.488Z,2.70
2017-10-27T13:40:20.982Z,2.80
2017-10-27T13:42:48.631Z,2.70
2017-10-27T13:45:16.129Z,2.57
2017-10-27T13:47:43.621Z,2.90
2017-10-27T13:50:11.145Z,2.90
2017-10-27T13:52:38.631Z,2.97
2017-10-27T13:55:06.127Z,2.30
2017-10-27T13:57:33.661Z,2.57
2017-10-27T14:00:01.168Z,2.83
2017-10-27T14:02:28.655Z,3.57
2017-10-27T14:04:56.187Z,3.47
2017-10-27T14:07:23.667Z,3.00
2017-10-27T14:09:51.190Z,3.27
2017-10-27T14:12:18.676Z,2.70
2017-10-27T14:14:46.164Z,2.13
2017-10-27T14:17:13.886Z,2.70
2017-10-27T14:19:41.385Z,2.60
2017-10-27T14:22:08.884Z,2.50
2017-10-27T14:24:36.424Z,2.83
2017-10-27T14:27:03.913Z,3.03
2017-10-27T14:29:31.400Z,2.73
2017-10-27T14:31:58.909Z,3.30
2017-10-27T14:34:26.437Z,6.47
2017-10-27T14:36:53.920Z,3.33
2017-10-27T14:39:21.408Z,3.60
2017-10-27T14:41:48.946Z,4.00
2017-10-27T14:44:16.432Z,3.37
2017-10-27T14:46:43.922Z,4.40
2017-10-27T14:49:11.453Z,3.40
2017-10-27T14:51:38.952Z,3.67
2017-10-27T14:54:06.480Z,3.03
2017-10-27T14:56:34.020Z,3.20
2017-10-27T14:59:01.574Z,4.27
2017-10-27T15:01:29.066Z,2.87
2017-10-27T15:03:56.596Z,4.03
2017-10-27T15:06:24.164Z,4.10
2017-10-27T15:08:51.647Z,4.00
2017-10-27T15:11:19.193Z,4.70
2017-10-27T15:13:46.720Z,6.57
2017-10-27T15:16:14.201Z,9.17
2017-10-27T15:18:41.840Z,5.40
2017-10-27T15:21:09.338Z,6.07
2017-10-27T15:23:36.828Z,7.23
2017-10-27T15:26:04.443Z,6.37
2017-10-27T15:28:32.071Z,11.20
2017-10-27T15:30:59.660Z,5.93
2017-10-27T15:33:27.147Z,5.93
2017-10-27T15:35:54.667Z,3.80
2017-10-27T15:38:22.145Z,3.70
2017-10-27T15:40:49.633Z,3.47
2017-10-27T15:43:17.153Z,3.13
2017-10-27T15:45:44.635Z,3.23
2017-10-27T15:48:12.240Z,4.60
2017-10-27T15:50:39.735Z,4.30
2017-10-27T15:53:07.212Z,2.80
2017-10-27T15:55:34.806Z,3.30
2017-10-27T15:58:02.289Z,3.90
2017-10-27T16:00:29.779Z,4.00
2017-10-27T16:02:57.495Z,3.20
2017-10-27T16:05:24.977Z,3.47
2017-10-27T16:07:52.515Z,3.40
2017-10-27T16:10:20.045Z,3.80
2017-10-27T16:12:47.538Z,2.93
2017-10-27T16:15:15.025Z,4.20
2017-10-27T16:17:42.654Z,4.70
2017-10-27T16:20:10.148Z,6.10
2017-10-27T16:22:37.656Z,5.30
2017-10-27T16:25:05.219Z,3.20
2017-10-27T16:27:32.695Z,3.83
2017-10-27T16:30:00.182Z,4.37
2017-10-27T16:32:27.716Z,4.30
2017-10-27T16:34:55.202Z,3.80
2017-10-27T16:37:22.679Z,3.97
2017-10-27T16:39:50.277Z,3.73
2017-10-27T16:42:17.835Z,3.80
2017-10-27T16:44:45.353Z,3.37
2017-10-27T16:47:12.836Z,4.03
2017-10-27T16:49:40.316Z,4.30
2017-10-27T16:52:07.843Z,3.60
2017-10-27T16:54:35.424Z,2.70
2017-10-27T16:57:02.906Z,3.80
2017-10-27T16:59:30.445Z,3.70
2017-10-27T17:01:57.931Z,3.70
2017-10-27T17:04:25.417Z,4.03
2017-10-27T17:06:52.952Z,2.90
2017-10-27T17:09:20.449Z,2.93
2017-10-27T17:11:47.935Z,3.90
2017-10-27T17:14:15.448Z,1.93
2017-10-27T17:16:42.928Z,2.70
2017-10-27T17:19:10.404Z,2.57
2017-10-27T17:21:38.071Z,3.77
2017-10-27T17:24:05.556Z,3.30
2017-10-27T17:26:33.079Z,2.97
2017-10-27T17:29:00.645Z,3.37
2017-10-27T17:31:28.126Z,3.93
2017-10-27T17:33:55.612Z,4.93
2017-10-27T17:36:23.124Z,3.63
2017-10-27T17:38:50.640Z,4.33
2017-10-27T17:41:18.129Z,5.03
2017-10-27T17:43:45.621Z,4.67
2017-10-27T17:46:13.132Z,4.70
2017-10-27T17:48:40.612Z,3.93
2017-10-27T17:51:08.109Z,4.27
2017-10-27T17:53:35.739Z,5.40
2017-10-27T17:56:03.223Z,3.40
2017-10-27T17:58:30.751Z,2.90
2017-10-27T18:00:58.236Z,2.90
2017-10-27T18:03:25.727Z,3.20
2017-10-27T18:05:53.311Z,2.60
2017-10-27T18:08:20.874Z,3.23
2017-10-27T18:10:48.359Z,3.37
2017-10-27T18:13:16.096Z,3.40
2017-10-27T18:15:43.572Z,4.60
2017-10-27T18:18:11.064Z,3.47
2017-10-27T18:20:38.606Z,3.27
2017-10-27T18:23:06.088Z,3.77
2017-10-27T18:25:33.568Z,2.90
2017-10-27T18:28:01.091Z,3.80
2017-10-27T18:30:28.580Z,3.20
2017-10-27T18:32:56.074Z,3.43
2017-10-27T18:35:23.715Z,3.63
2017-10-27T18:37:51.296Z,4.20
2017-10-27T18:40:18.773Z,3.40
2017-10-27T18:42:46.295Z,2.80
2017-10-27T18:45:13.851Z,3.10
2017-10-27T18:47:41.329Z,4.57
2017-10-27T18:50:08.888Z,2.97
2017-10-27T18:52:36.374Z,5.00
2017-10-27T18:55:03.855Z,3.50
2017-10-27T18:57:31.379Z,3.27
2017-10-27T18:59:58.856Z,3.50
2017-10-27T19:02:26.329Z,3.90
2017-10-27T19:04:53.829Z,4.40
2017-10-27T19:07:21.357Z,4.50
2017-10-27T19:09:48.840Z,5.00
2017-10-27T19:12:16.323Z,4.23
2017-10-27T19:14:43.849Z,3.97
2017-10-27T19:17:11.332Z,3.77
2017-10-27T19:19:38.826Z,4.17
2017-10-27T19:22:06.390Z,3.00
2017-10-27T19:24:33.984Z,3.80
2017-10-27T19:27:01.471Z,3.60
2017-10-27T19:29:28.971Z,5.10
2017-10-27T19:31:56.552Z,4.43
2017-10-27T19:34:24.028Z,2.90
2017-10-27T19:36:51.503Z,3.40
2017-10-27T19:39:19.010Z,3.70
2017-10-27T19:41:46.488Z,3.60
2017-10-27T19:44:14.048Z,3.40
2017-10-27T19:46:41.550Z,5.60
2017-10-27T19:49:09.035Z,3.00
2017-10-27T19:51:36.540Z,3.33
2017-10-27T19:54:04.083Z,3.03
2017-10-27T19:56:31.567Z,3.93
2017-10-27T19:58:59.062Z,3.17
2017-10-27T20:01:26.775Z,4.30
2017-10-27T20:03:54.264Z,2.93
2017-10-27T20:06:21.757Z,6.13
2017-10-27T20:08:49.460Z,7.27
2017-10-27T20:11:17.009Z,16.50
2017-10-27T20:13:44.505Z,10.77
2017-10-27T20:16:12.053Z,8.87
2017-10-27T20:18:39.540Z,12.00
2017-10-27T20:21:07.123Z,13.27
2017-10-27T20:23:34.636Z,11.53
2017-10-27T20:26:02.254Z,10.00
2017-10-27T20:28:29.755Z,11.73
2017-10-27T20:30:57.244Z,18.73
2017-10-27T20:33:24.766Z,17.67
2017-10-27T20:35:52.256Z,25.00
2017-10-27T20:38:19.844Z,23.23
2017-10-27T20:40:47.375Z,22.70
2017-10-27T20:43:14.869Z,14.90
2017-10-27T20:45:42.360Z,13.33
2017-10-27T20:48:10.079Z,29.43
2017-10-27T20:50:37.639Z,17.70
2017-10-27T20:53:05.122Z,21.43
2017-10-27T20:55:32.752Z,14.30
2017-10-27T20:58:00.262Z,2.90
2017-10-27T21:00:27.768Z,6.70
2017-10-27T21:02:55.303Z,5.83
2017-10-27T21:05:22.783Z,4.90
2017-10-27T21:07:50.343Z,10.40
2017-10-27T21:10:17.876Z,4.47
2017-10-27T21:12:46.193Z,11.93
2017-10-27T21:15:13.748Z,3.93
2017-10-27T21:17:41.268Z,3.30
2017-10-27T21:20:08.752Z,20.33
2017-10-27T21:22:36.241Z,4.23
2017-10-27T21:25:03.752Z,4.67
2017-10-27T21:27:31.311Z,5.33
2017-10-27T21:29:58.891Z,7.83
2017-10-27T21:32:26.428Z,9.57
2017-10-27T21:34:53.912Z,3.93
2017-10-27T21:37:21.390Z,3.20
2017-10-27T21:39:48.938Z,3.87
2017-10-27T21:42:16.422Z,2.80
2017-10-27T21:44:43.916Z,3.17
2017-10-27T21:47:11.602Z,3.27
2017-10-27T21:49:39.076Z,2.47
2017-10-27T21:52:06.574Z,3.03
2017-10-27T21:54:34.203Z,3.10
2017-10-27T21:57:01.702Z,7.27
2017-10-27T21:59:29.184Z,8.43
2017-10-27T22:01:56.732Z,2.73
2017-10-27T22:04:24.213Z,2.60
2017-10-27T22:06:51.685Z,2.63
2017-10-27T22:09:19.194Z,2.47
2017-10-27T22:11:46.688Z,2.53
2017-10-27T22:14:14.339Z,2.80
2017-10-27T22:16:41.811Z,4.50
2017-10-27T22:19:09.303Z,3.17
2017-10-27T22:21:37.041Z,5.93
2017-10-27T22:24:04.608Z,10.23
2017-10-27T22:26:32.089Z,3.80
2017-10-27T22:28:59.812Z,5.93
2017-10-27T22:31:27.292Z,2.80
2017-10-27T22:33:54.780Z,2.97
2017-10-27T22:36:22.483Z,2.37
2017-10-27T22:38:49.978Z,3.60
2017-10-27T22:41:17.459Z,6.40
2017-10-27T22:43:45.001Z,2.63
2017-10-27T22:46:12.484Z,3.20
2017-10-27T22:48:39.964Z,3.57
2017-10-27T22:51:07.494Z,2.20
2017-10-27T22:53:34.977Z,2.80
2017-10-27T22:56:02.460Z,3.93
2017-10-27T22:58:29.988Z,2.03
2017-10-27T23:00:57.564Z,2.37
2017-10-27T23:03:25.043Z,2.13
2017-10-27T23:05:53.347Z,2.30
2017-10-27T23:08:20.834Z,4.70
2017-10-27T23:10:48.519Z,3.20
2017-10-27T23:13:16.000Z,3.73
2017-10-27T23:15:43.536Z,3.90
2017-10-27T23:18:11.046Z,5.50
2017-10-27T23:20:38.712Z,3.17
2017-10-27T23:23:06.188Z,5.60
2017-10-27T23:25:33.676Z,2.73
2017-10-27T23:28:01.229Z,3.27
2017-10-27T23:30:28.713Z,3.03
2017-10-27T23:32:56.219Z,2.50
2017-10-27T23:35:23.712Z,6.40
2017-10-27T23:37:51.190Z,2.50
2017-10-27T23:40:18.704Z,2.13
2017-10-27T23:42:46.192Z,2.50
2017-10-27T23:45:13.728Z,3.30
2017-10-27T23:47:41.253Z,2.17
2017-10-27T23:50:08.742Z,2.60
2017-10-27T23:52:36.228Z,3.77
2017-10-27T23:55:03.880Z,2.60
2017-10-27T23:57:31.364Z,2.47
2017-10-27T23:59:58.857Z,5.93
